Terminal Aerodrome Forecast
Issued by NWS Pittsburgh, PA

Current Version | Previous Version | Graphics & Text | Print | Product List | Glossary On
Versions: 1 2 3 4 5 6 7 8 9 10 11 12 13 14 15 16 17 18 19 20 21 22 23 24 25 26 27 28 29 30 31
000
FTUS41 KPBZ 161312 AAA
TAFPIT
TAF AMD
KPIT 161312Z 1613/1718 VRB05KT 5SM RA SCT006 OVC025
     FM161330 34005KT 2SM RA OVC007
     FM161500 33010G18KT 1SM -RADZ BR OVC004
     FM161700 33012G20KT 4SM -DZ BR OVC007
     FM161800 33013G23KT P6SM BKN015
     FM170000 33012KT P6SM BKN035
     FM171300 VRB03KT P6SM SCT250=

USA.gov is the U.S. government's official web portal to all federal, state and local government web resources and services.